Time,TemperatureF,DewpointF,PressureIn,WindDirection,WindDirectionDegrees,WindSpeedMPH,WindSpeedGustMPH,Humidity,HourlyPrecipIn,Conditions,Clouds,dailyrainin,SoftwareType,DateUTC
2013-02-04 00:13:00,33.6,24.9,29.86,South,180,2.2,-999.0,70,-99.99,,,0.00,Acu-Link.com,2013-02-04 05:13:00,
2013-02-04 00:28:00,35.8,24.1,29.86,ESE,112,3.7,-999.0,62,-99.99,,,0.00,Acu-Link.com,2013-02-04 05:28:00,
2013-02-04 00:44:00,36.3,23.4,29.86,West,270,2.2,-999.0,59,-99.99,,,0.00,Acu-Link.com,2013-02-04 05:44:00,
2013-02-04 00:59:00,36.1,22.8,29.87,WSW,247,2.2,-999.0,58,-99.99,,,0.00,Acu-Link.com,2013-02-04 05:59:00,
2013-02-04 01:14:00,36.0,22.7,29.88,SSE,157,4.2,-999.0,58,-99.99,,,0.00,Acu-Link.com,2013-02-04 06:14:00,
2013-02-04 01:29:00,35.6,22.3,29.87,SE,135,3.2,-999.0,58,-99.99,,,0.00,Acu-Link.com,2013-02-04 06:29:00,
2013-02-04 01:45:00,34.5,22.1,29.87,SE,135,1.1,-999.0,60,-99.99,,,0.00,Acu-Link.com,2013-02-04 06:45:00,
2013-02-04 02:00:00,33.6,22.4,29.88,SSE,157,0.0,-999.0,63,-99.99,,,0.00,Acu-Link.com,2013-02-04 07:00:00,
2013-02-04 02:15:00,31.3,22.3,29.89,SW,225,0.0,-999.0,69,-99.99,,,0.00,Acu-Link.com,2013-02-04 07:15:00,
2013-02-04 02:30:00,30.2,21.9,29.89,SW,225,0.0,-999.0,71,-99.99,,,0.00,Acu-Link.com,2013-02-04 07:30:00,
2013-02-04 02:46:00,28.9,21.7,29.89,SW,225,0.0,-999.0,74,-99.99,,,0.00,Acu-Link.com,2013-02-04 07:46:00,
2013-02-04 03:01:00,28.8,22.5,29.90,SSE,157,0.0,-999.0,77,-99.99,,,0.00,Acu-Link.com,2013-02-04 08:01:00,
2013-02-04 03:16:00,28.2,21.9,29.90,SSE,157,0.0,-999.0,77,-99.99,,,0.00,Acu-Link.com,2013-02-04 08:16:00,
2013-02-04 03:32:00,27.0,22.0,29.91,SSE,157,0.0,-999.0,81,-99.99,,,0.00,Acu-Link.com,2013-02-04 08:32:00,
2013-02-04 03:47:00,26.1,21.4,29.91,SSE,157,0.0,-999.0,82,-99.99,,,0.00,Acu-Link.com,2013-02-04 08:47:00,
2013-02-04 04:02:00,25.5,21.9,29.92,SSE,157,0.0,-999.0,86,-99.99,,,0.00,Acu-Link.com,2013-02-04 09:02:00,
2013-02-04 04:17:00,25.3,21.7,29.92,South,180,0.0,-999.0,86,-99.99,,,0.00,Acu-Link.com,2013-02-04 09:17:00,
2013-02-04 04:33:00,24.8,22.0,29.92,SSE,157,0.0,-999.0,89,-99.99,,,0.00,Acu-Link.com,2013-02-04 09:33:00,
2013-02-04 04:48:00,24.3,22.1,29.92,ESE,112,0.0,-999.0,91,-99.99,,,0.00,Acu-Link.com,2013-02-04 09:48:00,
2013-02-04 05:03:00,24.1,21.9,29.93,ESE,112,0.0,-999.0,91,-99.99,,,0.00,Acu-Link.com,2013-02-04 10:03:00,
2013-02-04 05:19:00,23.5,22.0,29.93,ESE,112,0.0,-999.0,94,-99.99,,,0.00,Acu-Link.com,2013-02-04 10:19:00,
2013-02-04 05:34:00,23.5,22.5,29.94,ESE,112,0.0,-999.0,96,-99.99,,,0.00,Acu-Link.com,2013-02-04 10:34:00,
2013-02-04 05:49:00,23.2,22.2,29.94,ESE,112,0.0,-999.0,96,-99.99,,,0.00,Acu-Link.com,2013-02-04 10:49:00,
2013-02-04 06:05:00,23.7,23.2,29.95,ESE,112,0.0,-999.0,98,-99.99,,,0.00,Acu-Link.com,2013-02-04 11:05:00,
2013-02-04 06:20:00,24.4,23.7,29.96,ESE,112,0.0,-999.0,97,-99.99,,,0.00,Acu-Link.com,2013-02-04 11:20:00,
2013-02-04 06:35:00,24.4,23.4,29.96,ESE,112,0.0,-999.0,96,-99.99,,,0.00,Acu-Link.com,2013-02-04 11:35:00,
2013-02-04 06:50:00,25.7,24.7,29.97,SE,135,2.2,-999.0,96,-99.99,,,0.00,Acu-Link.com,2013-02-04 11:50:00,
2013-02-04 07:06:00,25.3,24.1,29.97,SSE,157,0.0,-999.0,95,-99.99,,,0.00,Acu-Link.com,2013-02-04 12:06:00,
2013-02-04 07:21:00,25.3,24.3,29.98,SSE,157,0.0,-999.0,96,-99.99,,,0.00,Acu-Link.com,2013-02-04 12:21:00,
2013-02-04 07:36:00,25.7,24.5,29.98,SSE,157,0.0,-999.0,95,-99.99,,,0.00,Acu-Link.com,2013-02-04 12:36:00,
2013-02-04 07:52:00,27.1,25.9,29.98,NE,45,0.0,-999.0,95,-99.99,,,0.00,Acu-Link.com,2013-02-04 12:52:00,
2013-02-04 08:07:00,28.2,26.2,29.99,NE,45,0.0,-999.0,92,-99.99,,,0.00,Acu-Link.com,2013-02-04 13:07:00,
2013-02-04 08:22:00,31.8,24.5,30.00,SSE,157,2.2,-999.0,74,-99.99,,,0.00,Acu-Link.com,2013-02-04 13:22:00,
2013-02-04 08:37:00,33.8,23.7,30.00,SSW,202,1.7,-999.0,66,-99.99,,,0.00,Acu-Link.com,2013-02-04 13:37:00,
2013-02-04 08:53:00,34.7,22.3,30.00,SSW,202,1.7,-999.0,60,-99.99,,,0.00,Acu-Link.com,2013-02-04 13:53:00,
2013-02-04 09:08:00,35.2,21.9,30.01,SSE,157,3.2,-999.0,58,-99.99,,,0.00,Acu-Link.com,2013-02-04 14:08:00,
2013-02-04 09:23:00,36.1,22.8,30.01,SSE,157,3.2,-999.0,58,-99.99,,,0.00,Acu-Link.com,2013-02-04 14:23:00,
2013-02-04 09:39:00,36.5,22.7,30.01,SSE,157,1.7,-999.0,57,-99.99,,,0.00,Acu-Link.com,2013-02-04 14:39:00,
2013-02-04 09:54:00,37.6,22.9,30.02,South,180,3.2,-999.0,55,-99.99,,,0.00,Acu-Link.com,2013-02-04 14:54:00,
2013-02-04 10:09:00,38.5,22.0,30.00,SW,225,2.7,-999.0,51,-99.99,,,0.00,Acu-Link.com,2013-02-04 15:09:00,
2013-02-04 10:24:00,38.8,21.8,30.01,SSE,157,2.7,-999.0,50,-99.99,,,0.00,Acu-Link.com,2013-02-04 15:24:00,
2013-02-04 10:40:00,40.1,21.5,30.02,South,180,1.7,-999.0,47,-99.99,,,0.00,Acu-Link.com,2013-02-04 15:40:00,
2013-02-04 10:55:00,42.4,21.0,30.02,SSW,202,1.7,-999.0,42,-99.99,,,0.00,Acu-Link.com,2013-02-04 15:55:00,
2013-02-04 11:10:00,43.7,19.8,30.02,South,180,5.3,-999.0,38,-99.99,,,0.00,Acu-Link.com,2013-02-04 16:10:00,
2013-02-04 11:26:00,44.4,20.4,30.02,SSE,157,5.3,-999.0,38,-99.99,,,0.00,Acu-Link.com,2013-02-04 16:26:00,
2013-02-04 11:41:00,44.1,20.7,30.01,SSW,202,3.2,-999.0,39,-99.99,,,0.00,Acu-Link.com,2013-02-04 16:41:00,
2013-02-04 11:56:00,43.9,20.6,30.00,SE,135,2.2,-999.0,39,-99.99,,,0.00,Acu-Link.com,2013-02-04 16:56:00,
2013-02-04 12:12:00,43.7,20.4,29.99,East,90,2.7,-999.0,39,-99.99,,,0.00,Acu-Link.com,2013-02-04 17:12:00,
2013-02-04 12:27:00,44.6,21.2,29.98,ENE,67,2.2,-999.0,39,-99.99,,,0.00,Acu-Link.com,2013-02-04 17:27:00,
2013-02-04 12:42:00,44.2,22.0,29.97,East,90,2.2,-999.0,41,-99.99,,,0.00,Acu-Link.com,2013-02-04 17:42:00,
2013-02-04 12:57:00,44.4,21.6,29.97,SSW,202,2.7,-999.0,40,-99.99,,,0.00,Acu-Link.com,2013-02-04 17:57:00,
2013-02-04 13:13:00,46.2,22.0,29.95,East,90,1.1,-999.0,38,-99.99,,,0.00,Acu-Link.com,2013-02-04 18:13:00,
2013-02-04 13:28:00,46.8,21.9,29.94,SSE,157,1.7,-999.0,37,-99.99,,,0.00,Acu-Link.com,2013-02-04 18:28:00,
2013-02-04 13:43:00,48.2,22.5,29.93,NNE,22,3.7,-999.0,36,-99.99,,,0.00,Acu-Link.com,2013-02-04 18:43:00,
2013-02-04 13:58:00,48.2,21.8,29.93,NE,45,3.7,-999.0,35,-99.99,,,0.00,Acu-Link.com,2013-02-04 18:58:00,
2013-02-04 14:14:00,48.7,21.6,29.93,NNE,22,1.7,-999.0,34,-99.99,,,0.00,Acu-Link.com,2013-02-04 19:14:00,
2013-02-04 14:29:00,48.7,23.0,29.94,ENE,67,4.7,-999.0,36,-99.99,,,0.00,Acu-Link.com,2013-02-04 19:29:00,
2013-02-04 14:44:00,48.6,22.9,29.94,ENE,67,1.1,-999.0,36,-99.99,,,0.00,Acu-Link.com,2013-02-04 19:44:00,
2013-02-04 15:00:00,47.7,22.1,29.92,NNE,22,3.7,-999.0,36,-99.99,,,0.00,Acu-Link.com,2013-02-04 20:00:00,
2013-02-04 15:15:00,47.7,22.7,29.91,SSE,157,2.7,-999.0,37,-99.99,,,0.00,Acu-Link.com,2013-02-04 20:15:00,
2013-02-04 15:30:00,47.8,22.8,29.92,SE,135,2.7,-999.0,37,-99.99,,,0.00,Acu-Link.com,2013-02-04 20:30:00,
2013-02-04 15:45:00,48.0,23.6,29.92,NNE,22,3.2,-999.0,38,-99.99,,,0.00,Acu-Link.com,2013-02-04 20:45:00,
2013-02-04 16:01:00,48.0,23.6,29.91,NE,45,2.7,-999.0,38,-99.99,,,0.00,Acu-Link.com,2013-02-04 21:01:00,
2013-02-04 16:16:00,48.2,23.8,29.91,NNW,337,2.2,-999.0,38,-99.99,,,0.00,Acu-Link.com,2013-02-04 21:16:00,
2013-02-04 16:31:00,48.0,24.2,29.90,NE,45,4.7,-999.0,39,-99.99,,,0.00,Acu-Link.com,2013-02-04 21:31:00,
2013-02-04 16:47:00,47.5,23.8,29.90,North,0,6.8,-999.0,39,-99.99,,,0.00,Acu-Link.com,2013-02-04 21:47:00,
2013-02-04 17:02:00,47.3,24.8,29.89,NNE,22,2.7,-999.0,41,-99.99,,,0.00,Acu-Link.com,2013-02-04 22:02:00,
2013-02-04 17:17:00,46.8,24.9,29.89,West,270,2.7,-999.0,42,-99.99,,,0.00,Acu-Link.com,2013-02-04 22:17:00,
2013-02-04 17:33:00,46.2,25.0,29.88,NNE,22,4.7,-999.0,43,-99.99,,,0.00,Acu-Link.com,2013-02-04 22:33:00,
2013-02-04 17:48:00,45.5,24.9,29.89,ENE,67,1.1,-999.0,44,-99.99,,,0.00,Acu-Link.com,2013-02-04 22:48:00,
2013-02-04 18:03:00,44.8,24.2,29.88,NNE,22,1.7,-999.0,44,-99.99,,,0.00,Acu-Link.com,2013-02-04 23:03:00,
2013-02-04 18:18:00,44.4,24.4,29.89,NNE,22,1.7,-999.0,45,-99.99,,,0.00,Acu-Link.com,2013-02-04 23:18:00,
2013-02-04 18:34:00,43.9,24.5,29.89,NNE,22,2.2,-999.0,46,-99.99,,,0.00,Acu-Link.com,2013-02-04 23:34:00,
2013-02-04 18:49:00,43.5,24.6,29.89,NNE,22,2.7,-999.0,47,-99.99,,,0.00,Acu-Link.com,2013-02-04 23:49:00,
2013-02-04 19:04:00,43.9,24.0,29.89,NNE,22,3.2,-999.0,45,-99.99,,,0.00,Acu-Link.com,2013-02-05 00:04:00,
2013-02-04 19:20:00,44.1,24.1,29.89,NE,45,3.2,-999.0,45,-99.99,,,0.00,Acu-Link.com,2013-02-05 00:20:00,
2013-02-04 19:35:00,44.2,24.7,29.89,NNE,22,6.3,-999.0,46,-99.99,,,0.00,Acu-Link.com,2013-02-05 00:35:00,
2013-02-04 19:50:00,44.4,24.9,29.89,NNW,337,1.1,-999.0,46,-99.99,,,0.00,Acu-Link.com,2013-02-05 00:50:00,
2013-02-04 20:06:00,44.2,25.3,29.89,NNE,22,4.7,-999.0,47,-99.99,,,0.00,Acu-Link.com,2013-02-05 01:06:00,
2013-02-04 20:21:00,43.9,25.5,29.90,NNW,337,0.0,-999.0,48,-99.99,,,0.00,Acu-Link.com,2013-02-05 01:21:00,
2013-02-04 20:36:00,43.2,25.8,29.90,SW,225,4.7,-999.0,50,-99.99,,,0.00,Acu-Link.com,2013-02-05 01:36:00,
2013-02-04 20:52:00,43.0,26.6,29.90,East,90,1.7,-999.0,52,-99.99,,,0.00,Acu-Link.com,2013-02-05 01:52:00,
2013-02-04 21:07:00,42.4,26.5,29.90,WNW,292,1.1,-999.0,53,-99.99,,,0.00,Acu-Link.com,2013-02-05 02:07:00,
2013-02-04 21:22:00,42.3,27.3,29.91,NNE,22,1.7,-999.0,55,-99.99,,,0.00,Acu-Link.com,2013-02-05 02:22:00,
2013-02-04 21:37:00,41.9,27.4,29.90,NNE,22,1.7,-999.0,56,-99.99,,,0.00,Acu-Link.com,2013-02-05 02:37:00,
2013-02-04 21:53:00,42.4,27.8,29.89,NW,315,2.2,-999.0,56,-99.99,,,0.00,Acu-Link.com,2013-02-05 02:53:00,
2013-02-04 22:08:00,42.1,27.5,29.89,East,90,1.7,-999.0,56,-99.99,,,0.00,Acu-Link.com,2013-02-05 03:08:00,
2013-02-04 22:23:00,41.2,27.6,29.90,NNE,22,2.7,-999.0,58,-99.99,,,0.00,Acu-Link.com,2013-02-05 03:23:00,
2013-02-04 22:39:00,40.3,27.5,29.90,North,0,2.2,-999.0,60,-99.99,,,0.00,Acu-Link.com,2013-02-05 03:39:00,
2013-02-04 22:54:00,40.3,27.5,29.89,ENE,67,2.7,-999.0,60,-99.99,,,0.00,Acu-Link.com,2013-02-05 03:54:00,
2013-02-04 23:09:00,39.9,27.6,29.89,NNE,22,2.2,-999.0,61,-99.99,,,0.00,Acu-Link.com,2013-02-05 04:09:00,
2013-02-04 23:24:00,39.7,27.8,29.89,NNE,22,3.2,-999.0,62,-99.99,,,0.00,Acu-Link.com,2013-02-05 04:24:00,
2013-02-04 23:40:00,39.2,27.7,29.89,NNE,22,1.7,-999.0,63,-99.99,,,0.00,Acu-Link.com,2013-02-05 04:40:00,
2013-02-04 23:55:00,39.2,27.7,29.89,NNE,22,0.0,-999.0,63,-99.99,,,0.00,Acu-Link.com,2013-02-05 04:55:00,